createdAt,value
2022-08-16T00:02:30.536Z,6.13
2022-08-16T00:04:59.656Z,5.93
2022-08-16T00:07:26.757Z,5.35
2022-08-16T00:09:56.189Z,5.90
2022-08-16T00:12:24.097Z,5.78
2022-08-16T00:14:50.904Z,5.83
2022-08-16T00:17:23.429Z,6.03
2022-08-16T00:19:53.708Z,5.95
2022-08-16T00:22:25.103Z,6.47
2022-08-16T00:24:54.413Z,6.30
2022-08-16T00:27:21.876Z,6.33
2022-08-16T00:29:48.500Z,6.68
2022-08-16T00:32:32.692Z,6.22
2022-08-16T00:35:00.454Z,6.05
2022-08-16T00:37:58.895Z,5.97
2022-08-16T00:40:34.881Z,5.87
2022-08-16T00:43:12.051Z,6.10
2022-08-16T00:46:22.422Z,5.75
2022-08-16T00:48:56.914Z,6.20
2022-08-16T00:51:25.077Z,6.05
2022-08-16T00:53:58.197Z,5.57
2022-08-16T00:56:58.573Z,6.07
2022-08-16T00:59:20.979Z,5.72
2022-08-16T01:01:51.369Z,5.38
2022-08-16T01:04:29.013Z,6.00
2022-08-16T01:07:02.036Z,5.00
2022-08-16T01:09:33.204Z,5.82
2022-08-16T01:12:00.950Z,6.18
2022-08-16T01:14:34.147Z,5.85
2022-08-16T01:17:03.160Z,6.38
2022-08-16T01:19:34.741Z,5.40
2022-08-16T01:22:49.560Z,5.47
2022-08-16T01:25:02.956Z,5.55
2022-08-16T01:27:35.212Z,5.93
2022-08-16T01:30:20.547Z,4.95
2022-08-16T01:33:01.370Z,6.03
2022-08-16T01:35:40.570Z,5.88
2022-08-16T01:38:34.430Z,5.53
2022-08-16T01:41:02.650Z,5.68
2022-08-16T01:43:31.539Z,5.47
2022-08-16T01:46:37.366Z,6.10
2022-08-16T01:48:48.374Z,6.57
2022-08-16T01:51:18.043Z,6.05
2022-08-16T01:53:54.608Z,5.88
2022-08-16T01:56:25.200Z,5.68
2022-08-16T01:58:55.199Z,5.43
2022-08-16T02:01:22.953Z,5.82
2022-08-16T02:03:52.440Z,5.72
2022-08-16T02:06:33.958Z,5.20
2022-08-16T02:09:05.295Z,6.22
2022-08-16T02:11:47.682Z,5.63
2022-08-16T02:14:18.414Z,6.20
2022-08-16T02:16:48.264Z,5.70
2022-08-16T02:19:16.196Z,5.53
2022-08-16T02:22:08.375Z,5.82
2022-08-16T02:24:34.327Z,6.00
2022-08-16T02:27:08.528Z,5.75
2022-08-16T02:29:35.011Z,5.53
2022-08-16T02:32:50.421Z,6.10
2022-08-16T02:34:50.298Z,5.72
2022-08-16T02:37:20.951Z,6.00
2022-08-16T02:39:53.733Z,6.00
2022-08-16T02:42:21.041Z,6.13
2022-08-16T02:44:47.465Z,6.40
2022-08-16T02:47:25.427Z,6.10
2022-08-16T02:49:59.320Z,7.70
2022-08-16T02:52:39.254Z,6.57
2022-08-16T02:55:11.722Z,6.10
2022-08-16T02:57:53.713Z,6.38
2022-08-16T03:00:32.110Z,6.15
2022-08-16T03:03:02.520Z,6.57
2022-08-16T03:05:31.575Z,5.53
2022-08-16T03:07:58.604Z,6.63
2022-08-16T03:10:33.530Z,6.38
2022-08-16T03:13:00.602Z,5.60
2022-08-16T03:15:27.856Z,5.77
2022-08-16T03:17:55.024Z,5.60
2022-08-16T03:20:32.352Z,5.78
2022-08-16T03:23:01.841Z,5.47
2022-08-16T03:25:41.104Z,5.38
2022-08-16T03:28:11.553Z,5.70
2022-08-16T03:30:38.255Z,5.85
2022-08-16T03:33:05.425Z,5.88
2022-08-16T03:35:36.159Z,5.55
2022-08-16T03:38:34.445Z,5.75
2022-08-16T03:40:53.877Z,5.73
2022-08-16T03:43:21.683Z,5.57
2022-08-16T03:45:48.897Z,5.65
2022-08-16T03:48:19.741Z,5.40
2022-08-16T03:51:00.067Z,4.95
2022-08-16T03:53:37.598Z,5.23
2022-08-16T03:56:07.318Z,5.75
2022-08-16T03:58:34.913Z,5.70
2022-08-16T04:01:04.724Z,6.15
2022-08-16T04:03:32.248Z,5.28
2022-08-16T04:05:59.493Z,6.43
2022-08-16T04:08:31.348Z,6.50
2022-08-16T04:11:01.526Z,6.53
2022-08-16T04:14:01.681Z,6.72
2022-08-16T04:16:27.385Z,6.50
2022-08-16T04:19:02.423Z,6.20
2022-08-16T04:21:35.860Z,6.22
2022-08-16T04:24:12.842Z,6.70
2022-08-16T04:26:46.246Z,6.68
2022-08-16T04:29:17.200Z,7.38
2022-08-16T04:31:56.242Z,6.27
2022-08-16T04:34:26.695Z,7.10
2022-08-16T04:36:53.842Z,6.80
2022-08-16T04:39:23.903Z,7.03
2022-08-16T04:41:56.668Z,6.88
2022-08-16T04:44:32.429Z,6.27
2022-08-16T04:47:21.102Z,6.93
2022-08-16T04:49:50.575Z,8.48
2022-08-16T04:52:32.759Z,8.30
2022-08-16T04:55:00.928Z,9.52
2022-08-16T04:57:30.380Z,8.23
2022-08-16T04:59:57.129Z,8.65
2022-08-16T05:02:42.252Z,8.20
2022-08-16T05:05:17.031Z,7.40
2022-08-16T05:07:58.560Z,8.40
2022-08-16T05:10:29.611Z,10.30
2022-08-16T05:12:57.550Z,9.95
2022-08-16T05:15:24.565Z,10.40
2022-08-16T05:17:58.845Z,10.68
2022-08-16T05:20:45.038Z,11.40
2022-08-16T05:23:15.143Z,9.93
2022-08-16T05:25:48.429Z,10.77
2022-08-16T05:28:15.292Z,9.98
2022-08-16T05:30:41.839Z,10.85
2022-08-16T05:33:16.493Z,10.55
2022-08-16T05:35:43.812Z,10.60
2022-08-16T05:38:32.464Z,10.75
2022-08-16T05:41:00.878Z,9.68
2022-08-16T05:43:32.152Z,11.07
2022-08-16T05:46:28.711Z,11.15
2022-08-16T05:49:03.741Z,10.27
2022-08-16T05:51:37.609Z,11.57
2022-08-16T05:54:07.663Z,10.93
2022-08-16T05:56:37.388Z,10.43
2022-08-16T05:59:06.427Z,11.00
2022-08-16T06:01:38.135Z,11.20
2022-08-16T06:04:13.587Z,11.27
2022-08-16T06:06:56.224Z,10.27
2022-08-16T06:09:23.921Z,12.10
2022-08-16T06:11:50.951Z,9.60
2022-08-16T06:14:18.145Z,10.20
2022-08-16T06:16:50.849Z,10.68
2022-08-16T06:19:17.744Z,11.18
2022-08-16T06:21:46.109Z,11.30
2022-08-16T06:24:54.541Z,11.90
2022-08-16T06:27:08.424Z,12.17
2022-08-16T06:29:34.856Z,12.57
2022-08-16T06:32:01.577Z,12.10
2022-08-16T06:34:53.242Z,12.38
2022-08-16T06:37:17.421Z,12.07
2022-08-16T06:39:49.176Z,12.60
2022-08-16T06:42:18.105Z,12.35
2022-08-16T06:44:45.771Z,12.85
2022-08-16T06:47:16.787Z,13.75
2022-08-16T06:49:44.024Z,13.90
2022-08-16T06:52:58.071Z,14.57
2022-08-16T06:55:13.009Z,14.27
2022-08-16T06:57:40.742Z,14.25
2022-08-16T07:00:24.779Z,14.77
2022-08-16T07:02:53.924Z,13.27
2022-08-16T07:05:26.997Z,11.87
2022-08-16T07:08:06.119Z,12.02
2022-08-16T07:10:32.570Z,13.73
2022-08-16T07:13:04.087Z,12.13
2022-08-16T07:15:38.124Z,13.45
2022-08-16T07:18:24.467Z,11.93
2022-08-16T07:20:53.883Z,11.60
2022-08-16T07:23:37.350Z,11.27
2022-08-16T07:26:09.840Z,12.25
2022-08-16T07:28:37.552Z,12.00
2022-08-16T07:31:05.034Z,12.10
2022-08-16T07:33:53.640Z,12.25
2022-08-16T07:36:22.608Z,12.13
2022-08-16T07:38:49.936Z,11.63
2022-08-16T07:41:16.897Z,12.60
2022-08-16T07:43:43.865Z,11.60
2022-08-16T07:46:38.993Z,11.13
2022-08-16T07:49:02.630Z,11.23
2022-08-16T07:51:34.729Z,11.48
2022-08-16T07:54:09.532Z,12.07
2022-08-16T07:56:37.660Z,12.97
2022-08-16T07:59:05.727Z,10.85
2022-08-16T08:01:33.457Z,11.18
2022-08-16T08:04:01.269Z,11.45
2022-08-16T08:06:32.217Z,10.48
2022-08-16T08:09:00.188Z,10.93
2022-08-16T08:11:29.569Z,10.85
2022-08-16T08:14:03.508Z,10.18
2022-08-16T08:16:32.733Z,10.10
2022-08-16T08:19:02.664Z,11.20
2022-08-16T08:21:58.385Z,10.90
2022-08-16T08:24:16.899Z,11.35
2022-08-16T08:26:43.545Z,10.98
2022-08-16T08:29:12.018Z,11.30
2022-08-16T08:31:42.461Z,11.35
2022-08-16T08:34:08.985Z,11.40
2022-08-16T08:36:39.398Z,10.70
2022-08-16T08:39:13.223Z,9.70
2022-08-16T08:41:41.460Z,8.70
2022-08-16T08:44:28.866Z,9.15
2022-08-16T08:47:00.014Z,10.83
2022-08-16T08:49:46.501Z,12.93
2022-08-16T08:52:35.194Z,11.68
2022-08-16T08:55:10.362Z,12.70
2022-08-16T08:57:44.774Z,10.20
2022-08-16T09:00:14.310Z,10.47
2022-08-16T09:02:51.920Z,11.10
2022-08-16T09:05:21.051Z,13.05
2022-08-16T09:08:00.493Z,11.93
2022-08-16T09:10:29.835Z,14.20
2022-08-16T09:12:57.167Z,12.13
2022-08-16T09:15:24.123Z,10.82
2022-08-16T09:17:54.700Z,9.73
2022-08-16T09:20:23.696Z,10.48
2022-08-16T09:22:52.576Z,11.40
2022-08-16T09:25:33.526Z,9.70
2022-08-16T09:28:02.399Z,10.45
2022-08-16T09:30:43.309Z,10.23
2022-08-16T09:33:12.441Z,10.50
2022-08-16T09:35:42.667Z,9.52
2022-08-16T09:38:12.182Z,11.67
2022-08-16T09:40:44.108Z,9.07
2022-08-16T09:43:37.788Z,10.93
2022-08-16T09:46:03.245Z,8.98
2022-08-16T09:48:52.973Z,10.95
2022-08-16T09:51:26.383Z,10.80
2022-08-16T09:54:03.730Z,10.13
2022-08-16T09:56:33.116Z,10.77
2022-08-16T09:59:03.959Z,8.95
2022-08-16T10:01:36.385Z,7.68
2022-08-16T10:04:04.179Z,7.60
2022-08-16T10:06:33.454Z,8.63
2022-08-16T10:09:06.319Z,7.70
2022-08-16T10:11:53.297Z,7.00
2022-08-16T10:14:24.481Z,8.10
2022-08-16T10:16:59.929Z,9.33
2022-08-16T10:19:29.164Z,8.50
2022-08-16T10:21:59.075Z,8.88
2022-08-16T10:24:28.302Z,7.13
2022-08-16T10:27:17.978Z,7.53
2022-08-16T10:30:00.406Z,7.90
2022-08-16T10:32:30.583Z,8.75
2022-08-16T10:35:00.234Z,8.02
2022-08-16T10:37:41.893Z,6.57
2022-08-16T10:40:28.745Z,8.55
2022-08-16T10:42:59.955Z,7.40
2022-08-16T10:45:36.395Z,9.88
2022-08-16T10:48:04.059Z,11.18
2022-08-16T10:50:32.724Z,11.70
2022-08-16T10:53:00.162Z,10.23
2022-08-16T10:55:40.627Z,10.10
2022-08-16T10:58:13.509Z,9.70
2022-08-16T11:00:43.850Z,11.43
2022-08-16T11:06:00.303Z,12.27
2022-08-16T11:08:31.297Z,10.00
2022-08-16T11:11:05.397Z,8.57
2022-08-16T11:16:26.503Z,9.80
2022-08-16T11:19:06.427Z,9.95
2022-08-16T11:24:39.431Z,10.73
2022-08-16T11:27:32.804Z,11.70
2022-08-16T11:29:56.747Z,9.90
2022-08-16T11:32:32.479Z,10.32
2022-08-16T11:35:13.750Z,10.37
2022-08-16T11:43:32.107Z,11.80
2022-08-16T11:46:43.740Z,14.23
2022-08-16T11:48:51.697Z,12.70
2022-08-16T11:51:20.574Z,9.30
2022-08-16T11:53:50.464Z,9.70
2022-08-16T11:56:37.577Z,11.13
2022-08-16T11:59:08.650Z,8.95
2022-08-16T12:01:44.615Z,11.40
2022-08-16T12:04:23.267Z,8.98
2022-08-16T12:06:53.657Z,9.35
2022-08-16T12:09:21.927Z,11.68
2022-08-16T12:11:52.691Z,10.10
2022-08-16T12:14:22.785Z,11.03
2022-08-16T12:16:55.816Z,10.43
2022-08-16T12:19:33.688Z,11.20
2022-08-16T12:22:00.802Z,9.63
2022-08-16T12:24:32.484Z,8.05
2022-08-16T12:27:00.003Z,8.93
2022-08-16T12:29:29.425Z,8.80
2022-08-16T12:32:00.636Z,6.82
2022-08-16T12:34:29.574Z,9.05
2022-08-16T12:36:56.448Z,7.00
2022-08-16T12:39:23.801Z,10.33
2022-08-16T12:41:56.355Z,8.90
2022-08-16T12:44:26.817Z,11.18
2022-08-16T12:47:16.383Z,8.13
2022-08-16T12:49:44.480Z,8.63
2022-08-16T12:52:32.755Z,9.10
2022-08-16T12:54:58.681Z,9.25
2022-08-16T12:57:25.536Z,11.00
2022-08-16T13:00:12.964Z,10.50
2022-08-16T13:02:54.015Z,10.85
2022-08-16T13:05:20.429Z,10.23
2022-08-16T13:07:51.763Z,10.70
2022-08-16T13:10:38.024Z,12.63
2022-08-16T13:13:09.249Z,8.35
2022-08-16T13:15:55.699Z,12.60
2022-08-16T13:18:33.614Z,12.20
2022-08-16T13:21:05.876Z,9.75
2022-08-16T13:23:33.521Z,12.07
2022-08-16T13:26:02.427Z,10.32
2022-08-16T13:28:28.973Z,13.45
2022-08-16T13:30:57.269Z,12.73
2022-08-16T13:33:30.778Z,11.57
2022-08-16T13:36:01.159Z,11.30
2022-08-16T13:38:32.689Z,11.35
2022-08-16T13:41:08.241Z,11.02
2022-08-16T13:43:36.561Z,10.20
2022-08-16T13:46:04.733Z,12.45
2022-08-16T13:48:37.037Z,12.32
2022-08-16T13:51:16.998Z,11.30
2022-08-16T13:53:59.791Z,9.05
2022-08-16T13:56:37.591Z,8.23
2022-08-16T13:59:20.177Z,8.10
2022-08-16T14:01:54.616Z,6.78
2022-08-16T14:04:26.408Z,5.40
2022-08-16T14:06:53.868Z,6.68
2022-08-16T14:09:21.303Z,6.13
2022-08-16T14:11:47.864Z,6.78
2022-08-16T14:14:20.059Z,6.13
2022-08-16T14:16:55.061Z,6.85
2022-08-16T14:19:22.536Z,5.38
2022-08-16T14:21:56.615Z,5.90
2022-08-16T14:24:30.019Z,5.50
2022-08-16T14:26:57.860Z,6.15
2022-08-16T14:29:24.325Z,6.63
2022-08-16T14:31:59.266Z,6.40
2022-08-16T14:34:29.800Z,5.87
2022-08-16T14:36:57.369Z,5.75
2022-08-16T14:39:26.047Z,6.68
2022-08-16T14:41:53.678Z,5.95
2022-08-16T14:44:23.280Z,6.70
2022-08-16T14:46:49.936Z,6.43
2022-08-16T14:49:19.181Z,6.47
2022-08-16T14:51:46.406Z,7.40
2022-08-16T14:54:13.207Z,6.55
2022-08-16T14:56:43.326Z,8.02
2022-08-16T14:59:21.101Z,5.60
2022-08-16T15:01:59.728Z,5.85
2022-08-16T15:04:39.864Z,6.35
2022-08-16T15:07:12.464Z,7.63
2022-08-16T15:10:00.375Z,7.95
2022-08-16T15:12:31.138Z,7.10
2022-08-16T15:15:01.890Z,7.70
2022-08-16T15:17:34.089Z,7.13
2022-08-16T15:20:08.653Z,7.68
2022-08-16T15:22:42.975Z,9.50
2022-08-16T15:25:17.778Z,8.40
2022-08-16T15:30:47.883Z,7.53
2022-08-16T15:36:04.277Z,7.78
2022-08-16T15:39:01.960Z,7.50
2022-08-16T15:41:43.631Z,6.82
2022-08-16T15:44:14.265Z,6.65
2022-08-16T15:46:56.355Z,5.95
2022-08-16T15:49:37.296Z,5.57
2022-08-16T16:00:14.689Z,6.45
2022-08-16T16:03:11.618Z,5.97
2022-08-16T16:05:43.472Z,5.70
2022-08-16T16:16:02.902Z,5.95
2022-08-16T16:18:31.767Z,6.53
2022-08-16T16:21:02.082Z,7.43
2022-08-16T16:23:35.363Z,8.60
2022-08-16T16:31:40.557Z,9.37
2022-08-16T16:34:10.006Z,7.78
2022-08-16T16:36:39.951Z,9.25
2022-08-16T16:42:06.530Z,9.85
2022-08-16T16:52:56.990Z,10.18
2022-08-16T16:55:25.445Z,9.48
2022-08-16T16:58:17.992Z,9.27
2022-08-16T17:00:58.830Z,9.48
2022-08-16T17:03:26.504Z,9.07
2022-08-16T17:06:00.251Z,9.43
2022-08-16T17:08:29.660Z,9.77
2022-08-16T17:21:42.001Z,8.02
2022-08-16T17:53:41.515Z,7.90
2022-08-16T17:56:09.097Z,8.05
2022-08-16T17:58:36.378Z,8.55
2022-08-16T18:01:03.516Z,7.57
2022-08-16T18:11:57.093Z,7.07
2022-08-16T18:14:51.180Z,7.50
2022-08-16T18:25:48.980Z,9.13
2022-08-16T18:28:16.777Z,10.00
2022-08-16T18:36:19.971Z,11.38
2022-08-16T18:56:15.682Z,9.00
2022-08-16T18:58:42.263Z,10.23
2022-08-16T19:01:08.768Z,9.73
2022-08-16T19:03:35.382Z,10.20
2022-08-16T19:06:07.584Z,10.95
2022-08-16T19:08:38.537Z,11.27
2022-08-16T19:11:10.327Z,11.32
2022-08-16T19:13:40.300Z,10.57
2022-08-16T19:16:07.577Z,12.70
2022-08-16T19:18:36.530Z,13.27
2022-08-16T19:21:03.710Z,11.23
2022-08-16T19:23:35.726Z,12.75
2022-08-16T19:26:07.325Z,11.60
2022-08-16T19:28:51.092Z,12.02
2022-08-16T19:31:31.846Z,12.18
2022-08-16T19:33:59.204Z,12.55
2022-08-16T19:36:36.929Z,13.88
2022-08-16T19:39:08.809Z,13.57
2022-08-16T19:41:53.791Z,15.88
2022-08-16T19:52:23.787Z,14.73
2022-08-16T19:54:53.017Z,16.27
2022-08-16T19:57:20.346Z,16.65
2022-08-16T19:59:47.410Z,19.38
2022-08-16T20:02:25.597Z,18.15
2022-08-16T20:05:05.323Z,19.97
2022-08-16T20:07:32.287Z,19.90
2022-08-16T20:09:58.819Z,22.05
2022-08-16T20:12:25.648Z,19.02
2022-08-16T20:14:52.527Z,18.83
2022-08-16T20:17:19.552Z,21.90
2022-08-16T20:19:46.356Z,21.42
2022-08-16T20:22:42.052Z,19.48
2022-08-16T20:25:12.048Z,19.65
2022-08-16T20:27:39.989Z,19.45
2022-08-16T20:30:08.993Z,20.03
2022-08-16T20:32:36.351Z,20.50
2022-08-16T20:35:07.526Z,19.75
2022-08-16T20:37:37.195Z,19.33
2022-08-16T20:40:34.617Z,18.95
2022-08-16T20:43:12.745Z,19.50
2022-08-16T20:45:41.138Z,17.90
2022-08-16T20:48:07.768Z,18.70
2022-08-16T20:50:34.692Z,19.25
2022-08-16T20:53:01.837Z,19.30
2022-08-16T20:55:29.421Z,18.03
2022-08-16T20:57:56.153Z,18.15
2022-08-16T21:00:22.648Z,19.45
2022-08-16T21:02:53.415Z,20.02
2022-08-16T21:05:31.026Z,20.50
2022-08-16T21:07:57.956Z,18.60
2022-08-16T21:10:24.641Z,18.83
2022-08-16T21:12:56.180Z,18.90
2022-08-16T21:15:25.665Z,18.30
2022-08-16T21:17:52.308Z,18.35
2022-08-16T21:20:20.540Z,17.03
2022-08-16T21:22:59.081Z,16.13
2022-08-16T21:25:25.649Z,16.73
2022-08-16T21:28:41.101Z,17.83
2022-08-16T21:30:39.331Z,16.27
2022-08-16T21:33:15.764Z,16.57
2022-08-16T21:35:44.481Z,17.27
2022-08-16T21:38:28.728Z,16.65
2022-08-16T21:40:57.143Z,16.90
2022-08-16T21:43:27.647Z,19.13
2022-08-16T21:45:55.681Z,17.50
2022-08-16T21:48:35.227Z,19.27
2022-08-16T21:51:07.712Z,19.08
2022-08-16T21:53:35.273Z,21.02
2022-08-16T21:56:03.601Z,19.83
2022-08-16T21:58:31.164Z,20.67
2022-08-16T22:00:58.265Z,21.40
2022-08-16T22:03:26.441Z,20.30
2022-08-16T22:06:12.281Z,21.70
2022-08-16T22:08:48.855Z,20.15
2022-08-16T22:11:19.351Z,22.70
2022-08-16T22:13:57.368Z,22.63
2022-08-16T22:16:30.392Z,19.75
2022-08-16T22:18:56.878Z,20.30
2022-08-16T22:21:23.317Z,20.75
2022-08-16T22:23:57.133Z,21.00
2022-08-16T22:26:31.117Z,21.85
2022-08-16T22:29:04.373Z,23.20
2022-08-16T22:31:31.404Z,21.63
2022-08-16T22:33:57.908Z,21.25
2022-08-16T22:36:28.382Z,22.17
2022-08-16T22:38:59.823Z,21.20
2022-08-16T22:41:31.852Z,20.77
2022-08-16T22:43:59.754Z,22.10
2022-08-16T22:46:26.507Z,21.33
2022-08-16T22:48:52.945Z,19.47
2022-08-16T22:51:22.085Z,21.65
2022-08-16T22:53:48.891Z,20.35
2022-08-16T22:56:17.712Z,20.83
2022-08-16T22:58:45.402Z,21.02
2022-08-16T23:01:12.866Z,19.83
2022-08-16T23:03:40.907Z,19.13
2022-08-16T23:06:08.650Z,20.30
2022-08-16T23:08:40.593Z,19.10
2022-08-16T23:11:21.271Z,19.90
2022-08-16T23:13:54.507Z,18.03
2022-08-16T23:16:33.471Z,17.70
2022-08-16T23:19:19.124Z,17.23
2022-08-16T23:21:48.254Z,18.15
2022-08-16T23:24:17.519Z,18.17
2022-08-16T23:26:48.512Z,17.33
2022-08-16T23:29:24.335Z,17.42
2022-08-16T23:31:55.499Z,18.45
2022-08-16T23:34:22.244Z,17.90
2022-08-16T23:36:48.658Z,17.58
2022-08-16T23:39:15.087Z,17.87
2022-08-16T23:41:41.643Z,17.42
2022-08-16T23:44:56.368Z,18.17
2022-08-16T23:46:55.452Z,17.17
2022-08-16T23:49:58.037Z,16.40
2022-08-16T23:52:09.781Z,16.73
2022-08-16T23:54:36.767Z,16.35
2022-08-16T23:57:03.920Z,16.48
2022-08-16T23:59:30.422Z,17.15
